sensor_id;sensor_type;location;lat;lon;timestamp;temperature;humidity
14210;DHT22;7188;56.070;12.698;2023-04-02T00:08:55;0.80;99.90
14210;DHT22;7188;56.070;12.698;2023-04-02T00:11:34;0.80;1.00
14210;DHT22;7188;56.070;12.698;2023-04-02T00:14:03;0.70;1.00
14210;DHT22;7188;56.070;12.698;2023-04-02T00:16:29;0.70;1.00
14210;DHT22;7188;56.070;12.698;2023-04-02T00:18:59;0.70;99.90
14210;DHT22;7188;56.070;12.698;2023-04-02T00:21:34;0.70;99.90
14210;DHT22;7188;56.070;12.698;2023-04-02T00:24:02;0.70;99.90
14210;DHT22;7188;56.070;12.698;2023-04-02T00:26:39;0.70;99.90
14210;DHT22;7188;56.070;12.698;2023-04-02T00:29:11;0.70;99.90
14210;DHT22;7188;56.070;12.698;2023-04-02T00:31:40;0.70;99.90
14210;DHT22;7188;56.070;12.698;2023-04-02T00:34:08;0.70;99.90
14210;DHT22;7188;56.070;12.698;2023-04-02T00:36:38;0.70;99.90
14210;DHT22;7188;56.070;12.698;2023-04-02T00:39:14;0.70;99.90
14210;DHT22;7188;56.070;12.698;2023-04-02T00:41:41;0.70;99.90
14210;DHT22;7188;56.070;12.698;2023-04-02T00:44:13;0.70;99.90
14210;DHT22;7188;56.070;12.698;2023-04-02T00:46:42;0.70;99.90
14210;DHT22;7188;56.070;12.698;2023-04-02T00:49:28;0.70;99.90
14210;DHT22;7188;56.070;12.698;2023-04-02T00:51:59;0.70;99.90
14210;DHT22;7188;56.070;12.698;2023-04-02T00:54:30;0.70;99.90
14210;DHT22;7188;56.070;12.698;2023-04-02T00:56:57;0.70;99.90
14210;DHT22;7188;56.070;12.698;2023-04-02T00:59:33;0.60;99.90
14210;DHT22;7188;56.070;12.698;2023-04-02T01:02:22;0.50;99.90
14210;DHT22;7188;56.070;12.698;2023-04-02T01:11:09;0.50;1.00
14210;DHT22;7188;56.070;12.698;2023-04-02T01:22:15;0.40;1.00
14210;DHT22;7188;56.070;12.698;2023-04-02T01:24:46;0.30;1.00
14210;DHT22;7188;56.070;12.698;2023-04-02T01:27:17;0.30;1.00
14210;DHT22;7188;56.070;12.698;2023-04-02T01:29:59;0.30;1.00
14210;DHT22;7188;56.070;12.698;2023-04-02T01:32:27;0.30;1.00
14210;DHT22;7188;56.070;12.698;2023-04-02T01:34:54;0.20;1.00
14210;DHT22;7188;56.070;12.698;2023-04-02T01:37:45;0.20;1.00
14210;DHT22;7188;56.070;12.698;2023-04-02T01:40:38;0.20;1.00
14210;DHT22;7188;56.070;12.698;2023-04-02T01:43:31;0.20;1.00
14210;DHT22;7188;56.070;12.698;2023-04-02T01:45:59;0.20;1.00
14210;DHT22;7188;56.070;12.698;2023-04-02T01:48:29;0.20;1.00
14210;DHT22;7188;56.070;12.698;2023-04-02T01:50:57;0.20;1.00
14210;DHT22;7188;56.070;12.698;2023-04-02T01:53:26;0.20;1.00
14210;DHT22;7188;56.070;12.698;2023-04-02T01:55:54;0.10;1.00
14210;DHT22;7188;56.070;12.698;2023-04-02T01:58:23;0.10;1.00
14210;DHT22;7188;56.070;12.698;2023-04-02T02:01:02;0.10;1.00
14210;DHT22;7188;56.070;12.698;2023-04-02T02:03:30;0.10;1.00
14210;DHT22;7188;56.070;12.698;2023-04-02T02:05:56;0.10;1.00
14210;DHT22;7188;56.070;12.698;2023-04-02T02:08:57;0.10;1.00
14210;DHT22;7188;56.070;12.698;2023-04-02T02:11:25;0.10;1.00
14210;DHT22;7188;56.070;12.698;2023-04-02T02:13:59;0.10;1.00
14210;DHT22;7188;56.070;12.698;2023-04-02T02:16:26;0.00;1.00
14210;DHT22;7188;56.070;12.698;2023-04-02T02:18:57;0.00;1.00
14210;DHT22;7188;56.070;12.698;2023-04-02T02:24:02;0.00;1.00
14210;DHT22;7188;56.070;12.698;2023-04-02T02:26:31;0.00;1.00
14210;DHT22;7188;56.070;12.698;2023-04-02T02:29:00;0.00;1.00
14210;DHT22;7188;56.070;12.698;2023-04-02T02:31:32;0.00;1.00
14210;DHT22;7188;56.070;12.698;2023-04-02T02:34:05;0.00;1.00
14210;DHT22;7188;56.070;12.698;2023-04-02T02:36:50;0.00;1.00
14210;DHT22;7188;56.070;12.698;2023-04-02T02:39:37;-0.10;1.00
14210;DHT22;7188;56.070;12.698;2023-04-02T02:42:17;0.00;1.00
14210;DHT22;7188;56.070;12.698;2023-04-02T02:45:11;0.00;1.00
14210;DHT22;7188;56.070;12.698;2023-04-02T02:47:38;-0.10;99.90
14210;DHT22;7188;56.070;12.698;2023-04-02T02:50:11;-0.10;99.90
14210;DHT22;7188;56.070;12.698;2023-04-02T02:52:38;0.00;99.90
14210;DHT22;7188;56.070;12.698;2023-04-02T02:55:15;0.00;99.90
14210;DHT22;7188;56.070;12.698;2023-04-02T02:57:47;0.00;99.90
14210;DHT22;7188;56.070;12.698;2023-04-02T03:00:29;0.00;99.90
14210;DHT22;7188;56.070;12.698;2023-04-02T03:02:55;-0.10;99.90
14210;DHT22;7188;56.070;12.698;2023-04-02T03:05:24;-0.10;99.90
14210;DHT22;7188;56.070;12.698;2023-04-02T03:07:52;-0.10;99.90
14210;DHT22;7188;56.070;12.698;2023-04-02T03:15:56;-0.10;99.90
14210;DHT22;7188;56.070;12.698;2023-04-02T03:23:55;-0.10;99.90
14210;DHT22;7188;56.070;12.698;2023-04-02T03:31:37;-0.20;99.90
14210;DHT22;7188;56.070;12.698;2023-04-02T03:34:11;-0.20;99.90
14210;DHT22;7188;56.070;12.698;2023-04-02T03:37:01;-0.20;99.90
14210;DHT22;7188;56.070;12.698;2023-04-02T03:39:38;-0.20;99.90
14210;DHT22;7188;56.070;12.698;2023-04-02T03:47:22;-0.30;99.90
14210;DHT22;7188;56.070;12.698;2023-04-02T03:52:27;-0.30;99.90
14210;DHT22;7188;56.070;12.698;2023-04-02T03:54:55;-0.30;99.90
14210;DHT22;7188;56.070;12.698;2023-04-02T03:58:01;-0.30;99.90
14210;DHT22;7188;56.070;12.698;2023-04-02T04:02:57;-0.40;99.90
14210;DHT22;7188;56.070;12.698;2023-04-02T04:05:34;-0.40;99.90
14210;DHT22;7188;56.070;12.698;2023-04-02T04:08:07;-0.50;99.90
14210;DHT22;7188;56.070;12.698;2023-04-02T04:10:37;-0.50;99.90
14210;DHT22;7188;56.070;12.698;2023-04-02T04:13:14;-0.50;99.90
14210;DHT22;7188;56.070;12.698;2023-04-02T04:15:53;-0.60;99.90
14210;DHT22;7188;56.070;12.698;2023-04-02T04:18:34;-0.60;99.90
14210;DHT22;7188;56.070;12.698;2023-04-02T04:21:11;-0.60;99.90
14210;DHT22;7188;56.070;12.698;2023-04-02T04:23:40;-0.70;99.90
14210;DHT22;7188;56.070;12.698;2023-04-02T04:26:25;-0.60;1.00
14210;DHT22;7188;56.070;12.698;2023-04-02T04:31:50;-0.70;99.90
14210;DHT22;7188;56.070;12.698;2023-04-02T04:34:31;-0.70;99.90
14210;DHT22;7188;56.070;12.698;2023-04-02T04:37:03;-0.70;99.90
14210;DHT22;7188;56.070;12.698;2023-04-02T04:39:44;-0.70;99.90
14210;DHT22;7188;56.070;12.698;2023-04-02T04:42:21;-0.70;99.90
14210;DHT22;7188;56.070;12.698;2023-04-02T04:44:57;-0.70;99.90
14210;DHT22;7188;56.070;12.698;2023-04-02T04:47:55;-0.70;99.90
14210;DHT22;7188;56.070;12.698;2023-04-02T04:53:11;-0.70;99.90
14210;DHT22;7188;56.070;12.698;2023-04-02T04:55:49;-0.80;99.90
14210;DHT22;7188;56.070;12.698;2023-04-02T04:58:23;-0.80;99.90
14210;DHT22;7188;56.070;12.698;2023-04-02T05:08:46;-0.70;99.90
14210;DHT22;7188;56.070;12.698;2023-04-02T05:11:35;-0.70;99.90
14210;DHT22;7188;56.070;12.698;2023-04-02T05:14:25;-0.70;99.90
14210;DHT22;7188;56.070;12.698;2023-04-02T05:17:03;-0.70;99.90
14210;DHT22;7188;56.070;12.698;2023-04-02T05:27:32;-0.50;99.90
14210;DHT22;7188;56.070;12.698;2023-04-02T05:35:33;-0.40;99.90
14210;DHT22;7188;56.070;12.698;2023-04-02T05:38:01;-0.40;99.90
14210;DHT22;7188;56.070;12.698;2023-04-02T05:40:49;-0.40;99.90
14210;DHT22;7188;56.070;12.698;2023-04-02T05:43:23;-0.40;91.80
14210;DHT22;7188;56.070;12.698;2023-04-02T05:45:54;-0.30;93.90
14210;DHT22;7188;56.070;12.698;2023-04-02T05:48:48;-0.30;84.20
14210;DHT22;7188;56.070;12.698;2023-04-02T05:51:19;-0.20;63.10
14210;DHT22;7188;56.070;12.698;2023-04-02T05:53:51;-0.20;28.60
14210;DHT22;7188;56.070;12.698;2023-04-02T05:56:22;-0.20;27.30
14210;DHT22;7188;56.070;12.698;2023-04-02T05:59:20;-0.10;2.70
14210;DHT22;7188;56.070;12.698;2023-04-02T06:02:06;-0.10;1.00
14210;DHT22;7188;56.070;12.698;2023-04-02T06:04:53;0.10;1.00
14210;DHT22;7188;56.070;12.698;2023-04-02T06:12:55;0.30;1.00
14210;DHT22;7188;56.070;12.698;2023-04-02T06:15:35;0.20;1.00
14210;DHT22;7188;56.070;12.698;2023-04-02T06:18:06;0.20;1.00
14210;DHT22;7188;56.070;12.698;2023-04-02T06:20:33;0.20;1.00
14210;DHT22;7188;56.070;12.698;2023-04-02T06:23:06;0.20;1.00
14210;DHT22;7188;56.070;12.698;2023-04-02T06:25:39;0.30;1.00
14210;DHT22;7188;56.070;12.698;2023-04-02T06:28:13;0.30;1.00
14210;DHT22;7188;56.070;12.698;2023-04-02T06:30:40;0.30;1.00
14210;DHT22;7188;56.070;12.698;2023-04-02T06:33:11;0.40;1.00
14210;DHT22;7188;56.070;12.698;2023-04-02T06:35:39;0.40;1.00
14210;DHT22;7188;56.070;12.698;2023-04-02T06:38:13;0.40;1.00
14210;DHT22;7188;56.070;12.698;2023-04-02T06:40:56;0.50;1.00
14210;DHT22;7188;56.070;12.698;2023-04-02T06:43:36;0.60;1.00
14210;DHT22;7188;56.070;12.698;2023-04-02T06:46:12;0.60;1.00
14210;DHT22;7188;56.070;12.698;2023-04-02T06:48:40;0.70;1.00
14210;DHT22;7188;56.070;12.698;2023-04-02T06:51:12;0.70;1.00
14210;DHT22;7188;56.070;12.698;2023-04-02T06:53:44;0.70;1.00
14210;DHT22;7188;56.070;12.698;2023-04-02T06:58:57;0.80;1.00
14210;DHT22;7188;56.070;12.698;2023-04-02T07:01:30;0.90;1.00
14210;DHT22;7188;56.070;12.698;2023-04-02T07:03:58;1.00;1.00
14210;DHT22;7188;56.070;12.698;2023-04-02T07:06:24;1.00;1.00
14210;DHT22;7188;56.070;12.698;2023-04-02T07:08:49;1.10;1.00
14210;DHT22;7188;56.070;12.698;2023-04-02T07:11:18;1.10;1.00
14210;DHT22;7188;56.070;12.698;2023-04-02T07:13:45;1.10;1.00
14210;DHT22;7188;56.070;12.698;2023-04-02T07:16:16;1.10;1.00
14210;DHT22;7188;56.070;12.698;2023-04-02T07:18:42;1.20;1.00
14210;DHT22;7188;56.070;12.698;2023-04-02T07:21:08;1.20;1.00
14210;DHT22;7188;56.070;12.698;2023-04-02T07:23:33;1.30;1.00
14210;DHT22;7188;56.070;12.698;2023-04-02T07:25:59;1.30;1.00
14210;DHT22;7188;56.070;12.698;2023-04-02T07:28:26;1.40;1.00
14210;DHT22;7188;56.070;12.698;2023-04-02T07:30:52;1.40;1.00
14210;DHT22;7188;56.070;12.698;2023-04-02T07:33:20;1.50;1.00
14210;DHT22;7188;56.070;12.698;2023-04-02T07:35:47;1.60;1.00
14210;DHT22;7188;56.070;12.698;2023-04-02T07:38:13;1.60;1.00
14210;DHT22;7188;56.070;12.698;2023-04-02T07:40:38;1.70;1.00
14210;DHT22;7188;56.070;12.698;2023-04-02T07:43:05;1.80;1.00
14210;DHT22;7188;56.070;12.698;2023-04-02T07:45:33;1.80;1.00
14210;DHT22;7188;56.070;12.698;2023-04-02T07:48:10;1.80;1.00
14210;DHT22;7188;56.070;12.698;2023-04-02T07:50:36;1.90;1.00
14210;DHT22;7188;56.070;12.698;2023-04-02T07:53:02;2.00;1.00
14210;DHT22;7188;56.070;12.698;2023-04-02T07:55:28;2.00;1.00
14210;DHT22;7188;56.070;12.698;2023-04-02T07:57:57;2.10;1.00
14210;DHT22;7188;56.070;12.698;2023-04-02T08:00:25;2.10;1.00
14210;DHT22;7188;56.070;12.698;2023-04-02T08:02:51;2.20;1.00
14210;DHT22;7188;56.070;12.698;2023-04-02T08:05:17;2.30;1.00
14210;DHT22;7188;56.070;12.698;2023-04-02T08:07:55;2.30;1.00
14210;DHT22;7188;56.070;12.698;2023-04-02T08:10:21;2.50;1.00
14210;DHT22;7188;56.070;12.698;2023-04-02T08:12:47;2.50;1.00
14210;DHT22;7188;56.070;12.698;2023-04-02T08:15:14;2.50;1.00
14210;DHT22;7188;56.070;12.698;2023-04-02T08:17:40;2.60;1.00
14210;DHT22;7188;56.070;12.698;2023-04-02T08:20:15;2.60;1.00
14210;DHT22;7188;56.070;12.698;2023-04-02T08:22:43;2.80;1.00
14210;DHT22;7188;56.070;12.698;2023-04-02T08:25:09;2.70;1.00
14210;DHT22;7188;56.070;12.698;2023-04-02T08:27:35;2.80;1.00
14210;DHT22;7188;56.070;12.698;2023-04-02T08:30:01;3.00;1.00
14210;DHT22;7188;56.070;12.698;2023-04-02T08:32:26;3.00;1.00
14210;DHT22;7188;56.070;12.698;2023-04-02T08:34:53;3.10;1.00
14210;DHT22;7188;56.070;12.698;2023-04-02T08:37:19;3.10;1.00
14210;DHT22;7188;56.070;12.698;2023-04-02T08:39:44;3.20;1.00
14210;DHT22;7188;56.070;12.698;2023-04-02T08:47:25;3.50;1.00
14210;DHT22;7188;56.070;12.698;2023-04-02T08:50:00;3.60;1.00
14210;DHT22;7188;56.070;12.698;2023-04-02T08:52:33;3.80;1.00
14210;DHT22;7188;56.070;12.698;2023-04-02T08:55:02;4.00;1.00
14210;DHT22;7188;56.070;12.698;2023-04-02T08:57:46;3.90;1.00
14210;DHT22;7188;56.070;12.698;2023-04-02T09:03:07;4.00;1.00
14210;DHT22;7188;56.070;12.698;2023-04-02T09:05:37;4.00;1.00
14210;DHT22;7188;56.070;12.698;2023-04-02T09:08:08;4.10;1.00
14210;DHT22;7188;56.070;12.698;2023-04-02T09:10:54;4.10;1.00
14210;DHT22;7188;56.070;12.698;2023-04-02T09:13:26;4.30;1.00
14210;DHT22;7188;56.070;12.698;2023-04-02T09:15:59;4.40;1.00
14210;DHT22;7188;56.070;12.698;2023-04-02T09:18:29;4.40;1.00
14210;DHT22;7188;56.070;12.698;2023-04-02T09:20:56;4.30;1.00
14210;DHT22;7188;56.070;12.698;2023-04-02T09:23:23;4.50;1.00
14210;DHT22;7188;56.070;12.698;2023-04-02T09:25:51;4.70;1.00
14210;DHT22;7188;56.070;12.698;2023-04-02T09:28:17;4.70;1.00
14210;DHT22;7188;56.070;12.698;2023-04-02T09:31:21;4.70;1.00
14210;DHT22;7188;56.070;12.698;2023-04-02T09:33:50;4.70;1.00
14210;DHT22;7188;56.070;12.698;2023-04-02T09:36:33;4.80;1.00
14210;DHT22;7188;56.070;12.698;2023-04-02T09:39:04;4.90;1.00
14210;DHT22;7188;56.070;12.698;2023-04-02T09:41:33;5.10;1.00
14210;DHT22;7188;56.070;12.698;2023-04-02T09:44:20;5.20;1.00
14210;DHT22;7188;56.070;12.698;2023-04-02T09:46:57;5.30;1.00
14210;DHT22;7188;56.070;12.698;2023-04-02T09:49:33;5.30;1.00
14210;DHT22;7188;56.070;12.698;2023-04-02T09:54:45;5.50;1.00
14210;DHT22;7188;56.070;12.698;2023-04-02T09:57:20;5.60;1.00
14210;DHT22;7188;56.070;12.698;2023-04-02T10:00:17;5.40;1.00
14210;DHT22;7188;56.070;12.698;2023-04-02T10:03:02;5.50;1.00
14210;DHT22;7188;56.070;12.698;2023-04-02T10:05:29;5.50;1.00
14210;DHT22;7188;56.070;12.698;2023-04-02T10:08:47;5.50;1.00
14210;DHT22;7188;56.070;12.698;2023-04-02T10:11:01;5.70;1.00
14210;DHT22;7188;56.070;12.698;2023-04-02T10:13:55;5.90;1.00
14210;DHT22;7188;56.070;12.698;2023-04-02T10:16:25;5.90;1.00
14210;DHT22;7188;56.070;12.698;2023-04-02T10:18:53;5.90;1.00
14210;DHT22;7188;56.070;12.698;2023-04-02T10:21:30;5.90;1.00
14210;DHT22;7188;56.070;12.698;2023-04-02T10:23:57;5.80;1.00
14210;DHT22;7188;56.070;12.698;2023-04-02T10:26:36;5.90;1.00
14210;DHT22;7188;56.070;12.698;2023-04-02T10:34:33;6.10;1.00
14210;DHT22;7188;56.070;12.698;2023-04-02T10:37:18;6.20;1.00
14210;DHT22;7188;56.070;12.698;2023-04-02T10:39:57;6.30;1.00
14210;DHT22;7188;56.070;12.698;2023-04-02T10:45:34;6.10;1.00
14210;DHT22;7188;56.070;12.698;2023-04-02T10:56:15;6.30;1.00
14210;DHT22;7188;56.070;12.698;2023-04-02T10:59:14;6.40;1.00
14210;DHT22;7188;56.070;12.698;2023-04-02T11:01:42;6.50;1.00
14210;DHT22;7188;56.070;12.698;2023-04-02T11:04:23;6.60;1.00
14210;DHT22;7188;56.070;12.698;2023-04-02T11:09:24;6.70;1.00
14210;DHT22;7188;56.070;12.698;2023-04-02T11:11:55;6.70;1.00
14210;DHT22;7188;56.070;12.698;2023-04-02T11:14:26;6.70;1.00
14210;DHT22;7188;56.070;12.698;2023-04-02T11:16:55;6.80;1.00
14210;DHT22;7188;56.070;12.698;2023-04-02T11:19:26;6.90;1.00
14210;DHT22;7188;56.070;12.698;2023-04-02T11:22:03;7.10;1.00
14210;DHT22;7188;56.070;12.698;2023-04-02T11:24:46;7.00;1.00
14210;DHT22;7188;56.070;12.698;2023-04-02T11:27:14;7.10;1.00
14210;DHT22;7188;56.070;12.698;2023-04-02T11:32:32;7.20;1.00
14210;DHT22;7188;56.070;12.698;2023-04-02T11:37:59;7.40;1.00
14210;DHT22;7188;56.070;12.698;2023-04-02T11:40:41;7.50;1.00
14210;DHT22;7188;56.070;12.698;2023-04-02T11:46:01;7.50;1.00
14210;DHT22;7188;56.070;12.698;2023-04-02T11:48:30;7.30;1.00
14210;DHT22;7188;56.070;12.698;2023-04-02T11:50:58;7.30;1.00
14210;DHT22;7188;56.070;12.698;2023-04-02T11:53:33;7.20;1.00
14210;DHT22;7188;56.070;12.698;2023-04-02T11:56:36;7.40;1.00
14210;DHT22;7188;56.070;12.698;2023-04-02T12:09:26;7.60;1.00
14210;DHT22;7188;56.070;12.698;2023-04-02T12:11:57;7.90;1.00
14210;DHT22;7188;56.070;12.698;2023-04-02T12:16:55;7.90;1.00
14210;DHT22;7188;56.070;12.698;2023-04-02T12:19:21;7.90;1.00
14210;DHT22;7188;56.070;12.698;2023-04-02T12:21:47;7.80;1.00
14210;DHT22;7188;56.070;12.698;2023-04-02T12:24:21;7.70;1.00
14210;DHT22;7188;56.070;12.698;2023-04-02T12:26:48;7.90;1.00
14210;DHT22;7188;56.070;12.698;2023-04-02T12:29:30;8.00;1.00
14210;DHT22;7188;56.070;12.698;2023-04-02T12:31:58;8.20;1.00
14210;DHT22;7188;56.070;12.698;2023-04-02T12:34:26;8.40;1.00
14210;DHT22;7188;56.070;12.698;2023-04-02T12:36:54;8.30;1.00
14210;DHT22;7188;56.070;12.698;2023-04-02T12:39:21;8.20;1.00
14210;DHT22;7188;56.070;12.698;2023-04-02T12:41:47;8.10;1.00
14210;DHT22;7188;56.070;12.698;2023-04-02T12:44:15;8.10;1.00
14210;DHT22;7188;56.070;12.698;2023-04-02T12:46:43;8.20;1.00
14210;DHT22;7188;56.070;12.698;2023-04-02T12:52:27;8.40;1.00
14210;DHT22;7188;56.070;12.698;2023-04-02T12:55:01;8.50;1.00
14210;DHT22;7188;56.070;12.698;2023-04-02T13:02:48;8.20;1.00
14210;DHT22;7188;56.070;12.698;2023-04-02T13:08:00;8.40;1.00
14210;DHT22;7188;56.070;12.698;2023-04-02T13:10:27;8.40;1.00
14210;DHT22;7188;56.070;12.698;2023-04-02T13:13:20;8.40;1.00
14210;DHT22;7188;56.070;12.698;2023-04-02T13:16:00;8.50;1.00
14210;DHT22;7188;56.070;12.698;2023-04-02T13:18:27;8.60;1.00
14210;DHT22;7188;56.070;12.698;2023-04-02T13:21:21;8.70;1.00
14210;DHT22;7188;56.070;12.698;2023-04-02T13:23:48;8.60;1.00
14210;DHT22;7188;56.070;12.698;2023-04-02T13:26:25;8.60;1.00
14210;DHT22;7188;56.070;12.698;2023-04-02T13:31:25;8.80;1.00
14210;DHT22;7188;56.070;12.698;2023-04-02T13:33:51;8.80;1.00
14210;DHT22;7188;56.070;12.698;2023-04-02T13:36:17;8.60;1.00
14210;DHT22;7188;56.070;12.698;2023-04-02T13:38:42;8.80;1.00
14210;DHT22;7188;56.070;12.698;2023-04-02T13:43:49;9.20;1.00
14210;DHT22;7188;56.070;12.698;2023-04-02T13:46:21;9.30;1.00
14210;DHT22;7188;56.070;12.698;2023-04-02T13:48:49;9.20;1.00
14210;DHT22;7188;56.070;12.698;2023-04-02T13:51:16;9.10;1.00
14210;DHT22;7188;56.070;12.698;2023-04-02T13:53:44;9.20;1.00
14210;DHT22;7188;56.070;12.698;2023-04-02T13:56:11;9.10;1.00
14210;DHT22;7188;56.070;12.698;2023-04-02T13:58:37;9.20;1.00
14210;DHT22;7188;56.070;12.698;2023-04-02T14:01:02;9.10;1.00
14210;DHT22;7188;56.070;12.698;2023-04-02T14:03:28;9.00;1.00
14210;DHT22;7188;56.070;12.698;2023-04-02T14:06:10;9.00;1.00
14210;DHT22;7188;56.070;12.698;2023-04-02T14:22:08;9.10;1.00
14210;DHT22;7188;56.070;12.698;2023-04-02T14:33:25;9.00;1.00
14210;DHT22;7188;56.070;12.698;2023-04-02T14:36:52;9.20;1.00
14210;DHT22;7188;56.070;12.698;2023-04-02T14:41:54;9.10;1.00
14210;DHT22;7188;56.070;12.698;2023-04-02T14:44:23;9.10;1.00
14210;DHT22;7188;56.070;12.698;2023-04-02T14:46:58;9.10;1.00
14210;DHT22;7188;56.070;12.698;2023-04-02T14:49:31;9.10;1.00
14210;DHT22;7188;56.070;12.698;2023-04-02T14:52:03;9.00;1.00
14210;DHT22;7188;56.070;12.698;2023-04-02T14:54:39;9.00;1.00
14210;DHT22;7188;56.070;12.698;2023-04-02T14:57:24;9.00;1.00
14210;DHT22;7188;56.070;12.698;2023-04-02T15:00:18;8.90;1.00
14210;DHT22;7188;56.070;12.698;2023-04-02T15:03:02;9.00;1.00
14210;DHT22;7188;56.070;12.698;2023-04-02T15:05:34;9.10;1.00
14210;DHT22;7188;56.070;12.698;2023-04-02T15:10:51;9.10;1.00
14210;DHT22;7188;56.070;12.698;2023-04-02T15:13:22;9.00;1.00
14210;DHT22;7188;56.070;12.698;2023-04-02T15:15:55;8.90;1.00
14210;DHT22;7188;56.070;12.698;2023-04-02T15:18:23;8.90;1.00
14210;DHT22;7188;56.070;12.698;2023-04-02T15:23:54;9.00;1.00
14210;DHT22;7188;56.070;12.698;2023-04-02T15:26:24;8.90;1.00
14210;DHT22;7188;56.070;12.698;2023-04-02T15:31:45;8.90;1.00
14210;DHT22;7188;56.070;12.698;2023-04-02T15:39:55;9.00;1.00
14210;DHT22;7188;56.070;12.698;2023-04-02T15:42:34;8.80;1.00
14210;DHT22;7188;56.070;12.698;2023-04-02T15:47:50;8.80;1.00
14210;DHT22;7188;56.070;12.698;2023-04-02T15:55:59;8.80;1.00
14210;DHT22;7188;56.070;12.698;2023-04-02T15:58:37;8.80;1.00
14210;DHT22;7188;56.070;12.698;2023-04-02T16:11:47;8.80;1.00
14210;DHT22;7188;56.070;12.698;2023-04-02T16:14:23;8.70;1.00
14210;DHT22;7188;56.070;12.698;2023-04-02T16:16:51;8.70;1.00
14210;DHT22;7188;56.070;12.698;2023-04-02T16:21:55;8.70;1.00
14210;DHT22;7188;56.070;12.698;2023-04-02T16:24:23;8.60;1.00
14210;DHT22;7188;56.070;12.698;2023-04-02T16:32:08;8.50;1.00
14210;DHT22;7188;56.070;12.698;2023-04-02T16:35:20;8.40;1.00
14210;DHT22;7188;56.070;12.698;2023-04-02T16:40:59;8.30;1.00
14210;DHT22;7188;56.070;12.698;2023-04-02T16:48:54;8.30;1.00
14210;DHT22;7188;56.070;12.698;2023-04-02T16:51:36;8.30;1.00
14210;DHT22;7188;56.070;12.698;2023-04-02T16:54:08;8.30;1.00
14210;DHT22;7188;56.070;12.698;2023-04-02T16:56:52;8.20;1.00
14210;DHT22;7188;56.070;12.698;2023-04-02T17:02:33;8.10;1.00
14210;DHT22;7188;56.070;12.698;2023-04-02T17:05:30;7.90;1.00
14210;DHT22;7188;56.070;12.698;2023-04-02T17:11:04;7.70;1.00
14210;DHT22;7188;56.070;12.698;2023-04-02T17:16:12;7.60;1.00
14210;DHT22;7188;56.070;12.698;2023-04-02T17:18:46;7.40;1.00
14210;DHT22;7188;56.070;12.698;2023-04-02T17:21:16;7.40;1.00
14210;DHT22;7188;56.070;12.698;2023-04-02T17:23:48;7.30;1.00
14210;DHT22;7188;56.070;12.698;2023-04-02T17:26:16;7.20;1.00
14210;DHT22;7188;56.070;12.698;2023-04-02T17:28:44;7.10;1.00
14210;DHT22;7188;56.070;12.698;2023-04-02T17:31:22;7.10;1.00
14210;DHT22;7188;56.070;12.698;2023-04-02T17:33:48;7.00;1.00
14210;DHT22;7188;56.070;12.698;2023-04-02T17:39:51;6.90;1.00
14210;DHT22;7188;56.070;12.698;2023-04-02T17:45:21;6.70;1.00
14210;DHT22;7188;56.070;12.698;2023-04-02T17:48:04;6.60;1.00
14210;DHT22;7188;56.070;12.698;2023-04-02T17:50:57;6.50;1.00
14210;DHT22;7188;56.070;12.698;2023-04-02T18:09:53;6.00;1.00
14210;DHT22;7188;56.070;12.698;2023-04-02T18:12:52;5.90;1.00
14210;DHT22;7188;56.070;12.698;2023-04-02T18:18:47;5.70;1.00
14210;DHT22;7188;56.070;12.698;2023-04-02T18:51:32;5.10;1.00
14210;DHT22;7188;56.070;12.698;2023-04-02T18:54:40;5.00;1.00
14210;DHT22;7188;56.070;12.698;2023-04-02T18:57:21;4.90;1.00
14210;DHT22;7188;56.070;12.698;2023-04-02T19:00:01;4.90;1.00
14210;DHT22;7188;56.070;12.698;2023-04-02T19:02:40;4.90;1.00
14210;DHT22;7188;56.070;12.698;2023-04-02T19:07:45;4.80;1.00
14210;DHT22;7188;56.070;12.698;2023-04-02T19:10:35;4.70;1.00
14210;DHT22;7188;56.070;12.698;2023-04-02T19:13:02;4.70;1.00
14210;DHT22;7188;56.070;12.698;2023-04-02T19:26:48;4.40;1.00
14210;DHT22;7188;56.070;12.698;2023-04-02T19:43:52;4.00;1.00
14210;DHT22;7188;56.070;12.698;2023-04-02T19:46:19;4.00;1.00
14210;DHT22;7188;56.070;12.698;2023-04-02T19:48:58;3.90;1.00
14210;DHT22;7188;56.070;12.698;2023-04-02T19:51:24;3.80;1.00
14210;DHT22;7188;56.070;12.698;2023-04-02T19:53:50;3.80;1.00
14210;DHT22;7188;56.070;12.698;2023-04-02T19:56:16;3.80;1.00
14210;DHT22;7188;56.070;12.698;2023-04-02T19:58:41;3.80;1.00
14210;DHT22;7188;56.070;12.698;2023-04-02T20:01:07;3.70;1.00
14210;DHT22;7188;56.070;12.698;2023-04-02T20:03:32;3.70;1.00
14210;DHT22;7188;56.070;12.698;2023-04-02T20:05:58;3.60;1.00
14210;DHT22;7188;56.070;12.698;2023-04-02T20:08:25;3.60;1.00
14210;DHT22;7188;56.070;12.698;2023-04-02T20:10:51;3.50;1.00
14210;DHT22;7188;56.070;12.698;2023-04-02T20:13:17;3.50;1.00
14210;DHT22;7188;56.070;12.698;2023-04-02T20:15:43;3.50;1.00
14210;DHT22;7188;56.070;12.698;2023-04-02T20:18:09;3.40;1.00
14210;DHT22;7188;56.070;12.698;2023-04-02T20:20:36;3.30;1.00
14210;DHT22;7188;56.070;12.698;2023-04-02T20:23:02;3.30;1.00
14210;DHT22;7188;56.070;12.698;2023-04-02T20:25:27;3.30;1.00
14210;DHT22;7188;56.070;12.698;2023-04-02T20:27:53;3.20;1.00
14210;DHT22;7188;56.070;12.698;2023-04-02T20:30:19;3.30;1.00
14210;DHT22;7188;56.070;12.698;2023-04-02T20:32:44;3.20;1.00
14210;DHT22;7188;56.070;12.698;2023-04-02T20:35:11;3.20;1.00
14210;DHT22;7188;56.070;12.698;2023-04-02T20:37:36;3.20;1.00
14210;DHT22;7188;56.070;12.698;2023-04-02T20:40:04;3.20;1.00
14210;DHT22;7188;56.070;12.698;2023-04-02T20:42:30;3.20;1.00
14210;DHT22;7188;56.070;12.698;2023-04-02T20:44:56;3.20;1.00
14210;DHT22;7188;56.070;12.698;2023-04-02T20:47:22;3.10;1.00
14210;DHT22;7188;56.070;12.698;2023-04-02T20:49:47;3.10;1.00
14210;DHT22;7188;56.070;12.698;2023-04-02T20:52:15;3.30;1.00
14210;DHT22;7188;56.070;12.698;2023-04-02T20:54:40;3.20;1.00
14210;DHT22;7188;56.070;12.698;2023-04-02T20:57:06;3.20;1.00
14210;DHT22;7188;56.070;12.698;2023-04-02T20:59:32;3.20;1.00
14210;DHT22;7188;56.070;12.698;2023-04-02T21:01:57;3.00;1.00
14210;DHT22;7188;56.070;12.698;2023-04-02T21:04:23;2.80;1.00
14210;DHT22;7188;56.070;12.698;2023-04-02T21:06:48;2.70;1.00
14210;DHT22;7188;56.070;12.698;2023-04-02T21:09:16;2.80;1.00
14210;DHT22;7188;56.070;12.698;2023-04-02T21:11:43;2.90;1.00
14210;DHT22;7188;56.070;12.698;2023-04-02T21:14:09;2.90;1.00
14210;DHT22;7188;56.070;12.698;2023-04-02T21:16:35;3.20;1.00
14210;DHT22;7188;56.070;12.698;2023-04-02T21:19:03;3.20;1.00
14210;DHT22;7188;56.070;12.698;2023-04-02T21:21:30;3.10;1.00
14210;DHT22;7188;56.070;12.698;2023-04-02T21:23:58;3.00;1.00
14210;DHT22;7188;56.070;12.698;2023-04-02T21:26:26;3.20;1.00
14210;DHT22;7188;56.070;12.698;2023-04-02T21:28:52;3.10;1.00
14210;DHT22;7188;56.070;12.698;2023-04-02T21:31:30;3.10;1.00
14210;DHT22;7188;56.070;12.698;2023-04-02T21:33:57;3.00;1.00
14210;DHT22;7188;56.070;12.698;2023-04-02T21:36:25;2.70;1.00
14210;DHT22;7188;56.070;12.698;2023-04-02T21:38:59;2.70;1.00
14210;DHT22;7188;56.070;12.698;2023-04-02T21:41:30;2.70;1.00
14210;DHT22;7188;56.070;12.698;2023-04-02T21:43:58;2.70;1.00
14210;DHT22;7188;56.070;12.698;2023-04-02T21:46:26;2.50;1.00
14210;DHT22;7188;56.070;12.698;2023-04-02T21:48:56;2.50;1.00
14210;DHT22;7188;56.070;12.698;2023-04-02T21:51:30;2.90;1.00
14210;DHT22;7188;56.070;12.698;2023-04-02T21:53:57;3.00;1.00
14210;DHT22;7188;56.070;12.698;2023-04-02T21:56:28;3.00;1.00